logo
Search for airport 
image banner adimage banner adimage banner ad
image banner ad

SCKM - Cochamo

Located in Cochamo, Chile

ICAO - SCKM, IATA -

Data provided by Airmate  

General information

Coordinates: S41°28'58" W72°18'27"
Elevation is 130 feet MSL.
Magnetic variation is 8° East
View others Airports in Los Lagos

Operational data

Special qualification required
Current time UTC:
Current local time:
Weather at : SCTE - El Tepual ( 66 km )
METAR: SCTE 161900Z 03006KT 340V060 9999 SCT020 BKN230 10/05 Q1025 NOSIG
TAF: TAF SCTE 161613Z 1618/1718 01007KT 9999 SCT025 TX10/1618Z TN09/1706Z TEMPO 1701/1705 VRB02KT 3000 BR FEW005 SCT020 BECMG 1708/1710 8000 -SHRA BKN030 BKN160 BECMG 1711/1713 01016KT 6000 RA BKN020 BKN050 TEMPO 1713/1716 36020G30KT
View NOTAMs / SUP AIP / TFR affecting this airport [VIEW]
Communications frequencies: [VIEW]

Runways:

RWY identifierQFULength (ft)Width (ft)SurfaceLDA (ft)
17184°196460ASPH
35196460ASPH

Airport contact information

Address: Cochamo Chile

Satellite view of SCKM